Latest METARs, TAFs and NOTAMs for MMPR


---------------------------------------------------------------------------
	(OBSERVATIONS)
MMPR 240144Z 12002KT 15SM  SCT020 BKN090 OVC250 27/26 A2980 
    RMK 8/577=
MMPR 240048Z 13003KT 15SM  SCT025 BKN110 OVC250 28/26 A2980 
    RMK 8/517 PCPN E=
---------------------------------------------------------------------------
	(TERMINAL AREA FORECAST)
MMPR 232308Z 2400/2506 22008KT P6SM SCT025 BKN120 BKN250 TX29/2419Z
    TN24/2411Z
    FM240400 01005KT P6SM BKN020 BKN120 BKN250
    BECMG 2409/2410 6SM RA BKN020CB
    TEMPO 2410/2414 3SM TSRA BKN015 OVC020CB
    FM241700 20008KT P6SM BKN020 BKN250
    FM250300 35005KT P6SM BKN020CB
    TEMPO 2503/2506 3SM TSRA=
---------------------------------------------------------------------------
	(NOTAMS)


MMPR A1837/17 CD OPR FREQ 121.9 MHZ. 1500/2200 DLY, 02 APR 15:00
    2017 UNTIL 28 OCT 22:00 2017. CREATED: 31 MAR 14:21 2017

MMPR A3797/17 CHANGED NOMENCLATURE OF THE FOLLOWING ACFT STANDS
    COMMERCIAL AVIATION APRON AS FOLLOWS: ACFT STAND NR-9 TO
    ACFT STAND NR-11 ACFT STAND NR-10 TO ACFT STAND NR-12 ACFT
    STAND NR-11 TO ACFT STAND NR-13 ACFT STAND NR-12 TO ACFT
    STAND NR-14 ACFT STAND NR-13 TO ACFT STAND NR-15 ACFT STAND
    NR-13A TO ACFT STAND NR-5A ACFT STAND NR-14 TO ACFT STAND
    NR-16 ACFT STAND NR-15 TO ACFT STAND NR-17 ACFT STAND NR-15A
    TO ACFT STAND NR-17A ACFT STAND NR-16 TO ACFT STAND NR-18
    ACFT STAND NR-16A TO ACFT STAND NR-18A ACFT STAND NR-17 TO
    ACFT STAND NR-19 ACFT STAND NR-18 TO ACFT STAND NR-20 ACFT
    STAND NR-18A TO ACFT STAND NR-20A. 01 JUL 05:00 2017 UNTIL
    PERM. CREATED: 01 JUL 00:56 2017

MMPR A3798/17 IN OPR ACFT STANDS NRS-9 TO 10 COMMERCIAL AVIATION
    APRON. 01 JUL 05:00 2017 UNTIL PERM. CREATED: 01 JUL 01:01
    2017

MMPR A4867/17 GUN LIGHTS TWR U/S. 10 AUG 14:41 2017 UNTIL 24
    AUG 15:55 2017. CREATED: 10 AUG 14:42 2017

MMPR A5242/17 ON MANOEUVRING AREA WIP MEN AND EQUIPMENT WILL
    BE REMOVED FOR ACFT OPS. 24 AUG 01:00 2017 UNTIL 24 AUG 11:00
    2017. CREATED: 23 AUG 23:57 2017

MMPR A5243/17 RWY 04/22 CLSD. 0500/1100 DLY, 25 AUG 05:00 2017
    UNTIL 26 AUG 11:00 2017. CREATED: 23 AUG 23:58 2017

---------------------------------------------------------------------------